sensor_id;sensor_type;location;lat;lon;timestamp;P1;durP1;ratioP1;P2;durP2;ratioP2
13202;SDS011;6666;51.626;7.530;2023-08-06T00:00:27;10.52;;;6.45;;
13202;SDS011;6666;51.626;7.530;2023-08-06T00:02:55;8.35;;;5.82;;
13202;SDS011;6666;51.626;7.530;2023-08-06T00:05:25;8.05;;;5.70;;
13202;SDS011;6666;51.626;7.530;2023-08-06T00:07:53;10.35;;;5.50;;
13202;SDS011;6666;51.626;7.530;2023-08-06T00:10:21;9.63;;;5.97;;
13202;SDS011;6666;51.626;7.530;2023-08-06T00:12:50;10.70;;;5.60;;
13202;SDS011;6666;51.626;7.530;2023-08-06T00:15:18;7.53;;;5.50;;
13202;SDS011;6666;51.626;7.530;2023-08-06T00:17:47;7.07;;;5.55;;
13202;SDS011;6666;51.626;7.530;2023-08-06T00:20:15;7.17;;;4.97;;
13202;SDS011;6666;51.626;7.530;2023-08-06T00:22:44;7.10;;;5.00;;
13202;SDS011;6666;51.626;7.530;2023-08-06T00:25:12;9.40;;;5.40;;
13202;SDS011;6666;51.626;7.530;2023-08-06T00:27:40;7.70;;;5.10;;
13202;SDS011;6666;51.626;7.530;2023-08-06T00:30:09;6.28;;;4.82;;
13202;SDS011;6666;51.626;7.530;2023-08-06T00:32:38;9.73;;;5.13;;
13202;SDS011;6666;51.626;7.530;2023-08-06T00:35:06;6.75;;;4.90;;
13202;SDS011;6666;51.626;7.530;2023-08-06T00:37:34;10.77;;;4.90;;
13202;SDS011;6666;51.626;7.530;2023-08-06T00:40:05;8.70;;;4.85;;
13202;SDS011;6666;51.626;7.530;2023-08-06T00:42:34;6.63;;;4.63;;
13202;SDS011;6666;51.626;7.530;2023-08-06T00:45:02;6.10;;;4.60;;
13202;SDS011;6666;51.626;7.530;2023-08-06T00:47:30;7.28;;;4.63;;
13202;SDS011;6666;51.626;7.530;2023-08-06T00:49:59;4.65;;;3.97;;
13202;SDS011;6666;51.626;7.530;2023-08-06T00:52:27;5.10;;;4.10;;
13202;SDS011;6666;51.626;7.530;2023-08-06T00:54:55;5.90;;;4.10;;
13202;SDS011;6666;51.626;7.530;2023-08-06T00:57:25;6.57;;;4.00;;
13202;SDS011;6666;51.626;7.530;2023-08-06T00:59:53;5.15;;;4.00;;
13202;SDS011;6666;51.626;7.530;2023-08-06T01:02:22;9.40;;;4.30;;
13202;SDS011;6666;51.626;7.530;2023-08-06T01:04:50;7.47;;;4.25;;
13202;SDS011;6666;51.626;7.530;2023-08-06T01:07:21;6.00;;;4.00;;
13202;SDS011;6666;51.626;7.530;2023-08-06T01:10:10;5.93;;;4.20;;
13202;SDS011;6666;51.626;7.530;2023-08-06T01:12:51;7.47;;;4.43;;
13202;SDS011;6666;51.626;7.530;2023-08-06T01:15:31;5.70;;;4.25;;
13202;SDS011;6666;51.626;7.530;2023-08-06T01:18:02;8.27;;;3.90;;
13202;SDS011;6666;51.626;7.530;2023-08-06T01:20:32;6.10;;;3.78;;
13202;SDS011;6666;51.626;7.530;2023-08-06T01:23:00;11.68;;;4.30;;
13202;SDS011;6666;51.626;7.530;2023-08-06T01:25:30;6.22;;;3.55;;
13202;SDS011;6666;51.626;7.530;2023-08-06T01:28:03;5.95;;;3.90;;
13202;SDS011;6666;51.626;7.530;2023-08-06T01:30:39;5.82;;;3.95;;
13202;SDS011;6666;51.626;7.530;2023-08-06T01:33:10;8.52;;;4.15;;
13202;SDS011;6666;51.626;7.530;2023-08-06T01:35:48;6.47;;;3.70;;
13202;SDS011;6666;51.626;7.530;2023-08-06T01:38:18;5.55;;;3.30;;
13202;SDS011;6666;51.626;7.530;2023-08-06T01:40:46;8.97;;;3.93;;
13202;SDS011;6666;51.626;7.530;2023-08-06T01:43:14;7.03;;;3.60;;
13202;SDS011;6666;51.626;7.530;2023-08-06T01:45:42;6.50;;;3.90;;
13202;SDS011;6666;51.626;7.530;2023-08-06T01:48:11;5.00;;;3.47;;
13202;SDS011;6666;51.626;7.530;2023-08-06T01:50:39;7.35;;;4.18;;
13202;SDS011;6666;51.626;7.530;2023-08-06T01:53:08;6.82;;;3.92;;
13202;SDS011;6666;51.626;7.530;2023-08-06T01:55:36;10.77;;;3.60;;
13202;SDS011;6666;51.626;7.530;2023-08-06T01:58:04;6.35;;;3.60;;
13202;SDS011;6666;51.626;7.530;2023-08-06T02:00:33;5.10;;;3.70;;
13202;SDS011;6666;51.626;7.530;2023-08-06T02:03:01;4.50;;;3.50;;
13202;SDS011;6666;51.626;7.530;2023-08-06T02:05:29;4.72;;;3.63;;
13202;SDS011;6666;51.626;7.530;2023-08-06T02:07:57;4.10;;;3.50;;
13202;SDS011;6666;51.626;7.530;2023-08-06T02:10:27;5.90;;;4.03;;
13202;SDS011;6666;51.626;7.530;2023-08-06T02:12:55;7.30;;;4.18;;
13202;SDS011;6666;51.626;7.530;2023-08-06T02:15:23;6.65;;;4.22;;
13202;SDS011;6666;51.626;7.530;2023-08-06T02:17:51;8.65;;;3.70;;
13202;SDS011;6666;51.626;7.530;2023-08-06T02:20:19;7.45;;;4.10;;
13202;SDS011;6666;51.626;7.530;2023-08-06T02:22:48;7.93;;;3.42;;
13202;SDS011;6666;51.626;7.530;2023-08-06T02:25:16;5.10;;;3.85;;
13202;SDS011;6666;51.626;7.530;2023-08-06T02:27:46;7.72;;;3.60;;
13202;SDS011;6666;51.626;7.530;2023-08-06T02:30:14;4.90;;;3.47;;
13202;SDS011;6666;51.626;7.530;2023-08-06T02:32:42;6.13;;;3.13;;
13202;SDS011;6666;51.626;7.530;2023-08-06T02:35:10;4.72;;;3.38;;
13202;SDS011;6666;51.626;7.530;2023-08-06T02:37:38;5.82;;;2.97;;
13202;SDS011;6666;51.626;7.530;2023-08-06T02:40:07;5.18;;;3.10;;
13202;SDS011;6666;51.626;7.530;2023-08-06T02:42:35;6.25;;;3.42;;
13202;SDS011;6666;51.626;7.530;2023-08-06T02:45:06;4.53;;;3.05;;
13202;SDS011;6666;51.626;7.530;2023-08-06T02:47:35;3.72;;;2.90;;
13202;SDS011;6666;51.626;7.530;2023-08-06T02:50:04;5.20;;;2.83;;
13202;SDS011;6666;51.626;7.530;2023-08-06T02:52:33;9.40;;;3.13;;
13202;SDS011;6666;51.626;7.530;2023-08-06T02:55:01;5.63;;;3.25;;
13202;SDS011;6666;51.626;7.530;2023-08-06T02:57:31;5.03;;;3.03;;
13202;SDS011;6666;51.626;7.530;2023-08-06T02:59:59;3.20;;;2.83;;
13202;SDS011;6666;51.626;7.530;2023-08-06T03:02:30;4.18;;;3.20;;
13202;SDS011;6666;51.626;7.530;2023-08-06T03:05:12;4.80;;;3.35;;
13202;SDS011;6666;51.626;7.530;2023-08-06T03:07:44;5.15;;;2.97;;
13202;SDS011;6666;51.626;7.530;2023-08-06T03:10:18;5.45;;;3.30;;
13202;SDS011;6666;51.626;7.530;2023-08-06T03:12:48;6.32;;;2.80;;
13202;SDS011;6666;51.626;7.530;2023-08-06T03:15:18;4.95;;;3.40;;
13202;SDS011;6666;51.626;7.530;2023-08-06T03:17:48;5.40;;;3.35;;
13202;SDS011;6666;51.626;7.530;2023-08-06T03:20:19;6.28;;;3.08;;
13202;SDS011;6666;51.626;7.530;2023-08-06T03:22:48;6.13;;;2.88;;
13202;SDS011;6666;51.626;7.530;2023-08-06T03:25:17;4.43;;;2.90;;
13202;SDS011;6666;51.626;7.530;2023-08-06T03:27:48;5.00;;;3.20;;
13202;SDS011;6666;51.626;7.530;2023-08-06T03:30:18;6.20;;;3.47;;
13202;SDS011;6666;51.626;7.530;2023-08-06T03:32:49;6.20;;;3.30;;
13202;SDS011;6666;51.626;7.530;2023-08-06T03:35:20;5.07;;;3.17;;
13202;SDS011;6666;51.626;7.530;2023-08-06T03:37:48;6.30;;;3.10;;
13202;SDS011;6666;51.626;7.530;2023-08-06T03:40:16;3.78;;;3.08;;
13202;SDS011;6666;51.626;7.530;2023-08-06T03:42:46;3.60;;;3.15;;
13202;SDS011;6666;51.626;7.530;2023-08-06T03:45:14;6.57;;;3.33;;
13202;SDS011;6666;51.626;7.530;2023-08-06T03:47:42;4.22;;;3.10;;
13202;SDS011;6666;51.626;7.530;2023-08-06T03:50:13;3.30;;;3.00;;
13202;SDS011;6666;51.626;7.530;2023-08-06T03:52:41;6.30;;;3.50;;
13202;SDS011;6666;51.626;7.530;2023-08-06T03:55:10;8.30;;;3.40;;
13202;SDS011;6666;51.626;7.530;2023-08-06T03:57:38;5.03;;;3.50;;
13202;SDS011;6666;51.626;7.530;2023-08-06T04:00:07;5.50;;;3.20;;
13202;SDS011;6666;51.626;7.530;2023-08-06T04:02:47;5.10;;;3.50;;
13202;SDS011;6666;51.626;7.530;2023-08-06T04:05:17;7.43;;;3.50;;
13202;SDS011;6666;51.626;7.530;2023-08-06T04:07:45;5.43;;;3.80;;
13202;SDS011;6666;51.626;7.530;2023-08-06T04:10:13;3.53;;;3.10;;
13202;SDS011;6666;51.626;7.530;2023-08-06T04:12:41;5.50;;;3.72;;
13202;SDS011;6666;51.626;7.530;2023-08-06T04:15:09;8.30;;;3.80;;
13202;SDS011;6666;51.626;7.530;2023-08-06T04:17:37;5.00;;;3.40;;
13202;SDS011;6666;51.626;7.530;2023-08-06T04:20:06;7.68;;;3.50;;
13202;SDS011;6666;51.626;7.530;2023-08-06T04:22:37;5.00;;;3.90;;
13202;SDS011;6666;51.626;7.530;2023-08-06T04:25:06;5.70;;;3.90;;
13202;SDS011;6666;51.626;7.530;2023-08-06T04:27:34;5.25;;;3.55;;
13202;SDS011;6666;51.626;7.530;2023-08-06T04:30:04;7.72;;;3.90;;
13202;SDS011;6666;51.626;7.530;2023-08-06T04:32:36;5.20;;;3.70;;
13202;SDS011;6666;51.626;7.530;2023-08-06T04:35:05;5.32;;;3.60;;
13202;SDS011;6666;51.626;7.530;2023-08-06T04:37:37;5.60;;;4.00;;
13202;SDS011;6666;51.626;7.530;2023-08-06T04:40:06;6.03;;;3.72;;
13202;SDS011;6666;51.626;7.530;2023-08-06T04:42:35;4.10;;;3.60;;
13202;SDS011;6666;51.626;7.530;2023-08-06T04:45:03;5.90;;;3.45;;
13202;SDS011;6666;51.626;7.530;2023-08-06T04:47:32;5.03;;;3.70;;
13202;SDS011;6666;51.626;7.530;2023-08-06T04:50:00;6.90;;;3.72;;
13202;SDS011;6666;51.626;7.530;2023-08-06T04:52:28;4.63;;;3.33;;
13202;SDS011;6666;51.626;7.530;2023-08-06T04:54:59;5.30;;;3.73;;
13202;SDS011;6666;51.626;7.530;2023-08-06T04:57:28;6.53;;;3.85;;
13202;SDS011;6666;51.626;7.530;2023-08-06T04:59:56;7.07;;;3.90;;
13202;SDS011;6666;51.626;7.530;2023-08-06T05:02:24;8.05;;;3.97;;
13202;SDS011;6666;51.626;7.530;2023-08-06T05:04:52;4.90;;;3.20;;
13202;SDS011;6666;51.626;7.530;2023-08-06T05:07:20;6.43;;;4.10;;
13202;SDS011;6666;51.626;7.530;2023-08-06T05:09:49;6.60;;;3.63;;
13202;SDS011;6666;51.626;7.530;2023-08-06T05:12:18;8.43;;;4.68;;
13202;SDS011;6666;51.626;7.530;2023-08-06T05:14:46;7.67;;;5.10;;
13202;SDS011;6666;51.626;7.530;2023-08-06T05:17:15;8.90;;;4.13;;
13202;SDS011;6666;51.626;7.530;2023-08-06T05:19:43;4.35;;;3.50;;
13202;SDS011;6666;51.626;7.530;2023-08-06T05:22:11;5.90;;;4.78;;
13202;SDS011;6666;51.626;7.530;2023-08-06T05:24:39;6.90;;;5.15;;
13202;SDS011;6666;51.626;7.530;2023-08-06T05:27:07;7.07;;;4.55;;
13202;SDS011;6666;51.626;7.530;2023-08-06T05:29:37;6.20;;;3.88;;
13202;SDS011;6666;51.626;7.530;2023-08-06T05:32:05;6.32;;;3.50;;
13202;SDS011;6666;51.626;7.530;2023-08-06T05:34:34;5.05;;;3.53;;
13202;SDS011;6666;51.626;7.530;2023-08-06T05:37:02;6.10;;;3.65;;
13202;SDS011;6666;51.626;7.530;2023-08-06T05:39:30;5.83;;;3.50;;
13202;SDS011;6666;51.626;7.530;2023-08-06T05:41:58;6.18;;;3.80;;
13202;SDS011;6666;51.626;7.530;2023-08-06T05:44:26;4.70;;;3.83;;
13202;SDS011;6666;51.626;7.530;2023-08-06T05:46:56;4.93;;;3.70;;
13202;SDS011;6666;51.626;7.530;2023-08-06T05:49:24;3.30;;;3.00;;
13202;SDS011;6666;51.626;7.530;2023-08-06T05:51:52;3.35;;;2.90;;
13202;SDS011;6666;51.626;7.530;2023-08-06T05:54:20;3.00;;;2.40;;
13202;SDS011;6666;51.626;7.530;2023-08-06T05:56:49;3.33;;;2.70;;
13202;SDS011;6666;51.626;7.530;2023-08-06T05:59:17;7.38;;;2.80;;
13202;SDS011;6666;51.626;7.530;2023-08-06T06:01:45;6.55;;;2.83;;
13202;SDS011;6666;51.626;7.530;2023-08-06T06:04:14;7.20;;;2.70;;
13202;SDS011;6666;51.626;7.530;2023-08-06T06:06:42;4.90;;;2.70;;
13202;SDS011;6666;51.626;7.530;2023-08-06T06:09:11;6.60;;;2.90;;
13202;SDS011;6666;51.626;7.530;2023-08-06T06:11:39;7.50;;;2.80;;
13202;SDS011;6666;51.626;7.530;2023-08-06T06:14:07;6.25;;;2.75;;
13202;SDS011;6666;51.626;7.530;2023-08-06T06:16:35;4.50;;;2.80;;
13202;SDS011;6666;51.626;7.530;2023-08-06T06:19:03;6.75;;;5.00;;
13202;SDS011;6666;51.626;7.530;2023-08-06T06:21:33;4.78;;;3.80;;
13202;SDS011;6666;51.626;7.530;2023-08-06T06:24:01;7.95;;;2.88;;
13202;SDS011;6666;51.626;7.530;2023-08-06T06:26:30;9.40;;;4.93;;
13202;SDS011;6666;51.626;7.530;2023-08-06T06:28:58;5.03;;;3.92;;
13202;SDS011;6666;51.626;7.530;2023-08-06T06:31:26;4.00;;;3.03;;
13202;SDS011;6666;51.626;7.530;2023-08-06T06:33:54;3.45;;;2.70;;
13202;SDS011;6666;51.626;7.530;2023-08-06T06:36:22;4.35;;;2.80;;
13202;SDS011;6666;51.626;7.530;2023-08-06T06:38:52;8.90;;;3.80;;
13202;SDS011;6666;51.626;7.530;2023-08-06T06:41:20;3.10;;;2.70;;
13202;SDS011;6666;51.626;7.530;2023-08-06T06:43:48;3.40;;;2.90;;
13202;SDS011;6666;51.626;7.530;2023-08-06T06:46:17;6.80;;;3.10;;
13202;SDS011;6666;51.626;7.530;2023-08-06T06:48:45;4.70;;;2.80;;
13202;SDS011;6666;51.626;7.530;2023-08-06T06:51:13;3.78;;;3.00;;
13202;SDS011;6666;51.626;7.530;2023-08-06T06:53:41;5.30;;;3.60;;
13202;SDS011;6666;51.626;7.530;2023-08-06T06:56:10;6.25;;;2.28;;
13202;SDS011;6666;51.626;7.530;2023-08-06T06:58:38;4.90;;;2.10;;
13202;SDS011;6666;51.626;7.530;2023-08-06T07:01:07;5.90;;;2.60;;
13202;SDS011;6666;51.626;7.530;2023-08-06T07:03:38;5.75;;;3.00;;
13202;SDS011;6666;51.626;7.530;2023-08-06T07:06:07;11.32;;;7.43;;
13202;SDS011;6666;51.626;7.530;2023-08-06T07:08:35;4.28;;;3.15;;
13202;SDS011;6666;51.626;7.530;2023-08-06T07:11:03;4.95;;;3.50;;
13202;SDS011;6666;51.626;7.530;2023-08-06T07:13:34;4.15;;;3.50;;
13202;SDS011;6666;51.626;7.530;2023-08-06T07:16:02;4.15;;;2.75;;
13202;SDS011;6666;51.626;7.530;2023-08-06T07:18:30;1.55;;;1.45;;
13202;SDS011;6666;51.626;7.530;2023-08-06T07:20:59;3.83;;;2.80;;
13202;SDS011;6666;51.626;7.530;2023-08-06T07:23:27;4.43;;;2.05;;
13202;SDS011;6666;51.626;7.530;2023-08-06T07:25:55;1.90;;;1.70;;
13202;SDS011;6666;51.626;7.530;2023-08-06T07:28:23;3.80;;;1.60;;
13202;SDS011;6666;51.626;7.530;2023-08-06T07:30:52;5.37;;;2.20;;
13202;SDS011;6666;51.626;7.530;2023-08-06T07:33:21;1.97;;;1.80;;
13202;SDS011;6666;51.626;7.530;2023-08-06T07:35:49;2.65;;;2.10;;
13202;SDS011;6666;51.626;7.530;2023-08-06T07:38:17;2.30;;;2.10;;
13202;SDS011;6666;51.626;7.530;2023-08-06T07:40:45;5.75;;;1.90;;
13202;SDS011;6666;51.626;7.530;2023-08-06T07:43:13;6.70;;;4.72;;
13202;SDS011;6666;51.626;7.530;2023-08-06T07:45:41;3.40;;;2.37;;
13202;SDS011;6666;51.626;7.530;2023-08-06T07:48:11;6.75;;;3.45;;
13202;SDS011;6666;51.626;7.530;2023-08-06T07:50:39;7.10;;;2.78;;
13202;SDS011;6666;51.626;7.530;2023-08-06T07:53:07;2.47;;;2.28;;
13202;SDS011;6666;51.626;7.530;2023-08-06T07:55:35;4.82;;;2.70;;
13202;SDS011;6666;51.626;7.530;2023-08-06T07:58:03;5.68;;;2.20;;
13202;SDS011;6666;51.626;7.530;2023-08-06T08:00:31;4.00;;;1.90;;
13202;SDS011;6666;51.626;7.530;2023-08-06T08:03:00;3.50;;;1.80;;
13202;SDS011;6666;51.626;7.530;2023-08-06T08:05:29;4.97;;;2.17;;
13202;SDS011;6666;51.626;7.530;2023-08-06T08:07:58;7.00;;;2.33;;
13202;SDS011;6666;51.626;7.530;2023-08-06T08:10:26;5.70;;;2.50;;
13202;SDS011;6666;51.626;7.530;2023-08-06T08:12:54;4.40;;;2.10;;
13202;SDS011;6666;51.626;7.530;2023-08-06T08:15:22;5.00;;;1.90;;
13202;SDS011;6666;51.626;7.530;2023-08-06T08:17:52;6.15;;;3.40;;
13202;SDS011;6666;51.626;7.530;2023-08-06T08:20:20;3.70;;;1.80;;
13202;SDS011;6666;51.626;7.530;2023-08-06T08:22:50;3.20;;;1.70;;
13202;SDS011;6666;51.626;7.530;2023-08-06T08:25:18;5.40;;;2.30;;
13202;SDS011;6666;51.626;7.530;2023-08-06T08:27:46;2.88;;;1.83;;
13202;SDS011;6666;51.626;7.530;2023-08-06T08:30:14;2.85;;;1.73;;
13202;SDS011;6666;51.626;7.530;2023-08-06T08:32:43;3.97;;;2.00;;
13202;SDS011;6666;51.626;7.530;2023-08-06T08:35:11;2.45;;;1.70;;
13202;SDS011;6666;51.626;7.530;2023-08-06T08:37:40;3.70;;;2.00;;
13202;SDS011;6666;51.626;7.530;2023-08-06T08:40:10;3.42;;;2.10;;
13202;SDS011;6666;51.626;7.530;2023-08-06T08:42:38;3.60;;;1.40;;
13202;SDS011;6666;51.626;7.530;2023-08-06T08:45:06;4.00;;;2.10;;
13202;SDS011;6666;51.626;7.530;2023-08-06T08:47:40;2.80;;;2.10;;
13202;SDS011;6666;51.626;7.530;2023-08-06T08:50:09;3.45;;;2.00;;
13202;SDS011;6666;51.626;7.530;2023-08-06T08:52:39;3.30;;;1.90;;
13202;SDS011;6666;51.626;7.530;2023-08-06T08:55:10;2.95;;;1.75;;
13202;SDS011;6666;51.626;7.530;2023-08-06T08:57:39;3.10;;;1.90;;
13202;SDS011;6666;51.626;7.530;2023-08-06T09:00:09;3.63;;;2.20;;
13202;SDS011;6666;51.626;7.530;2023-08-06T09:02:37;4.80;;;2.30;;
13202;SDS011;6666;51.626;7.530;2023-08-06T09:05:06;9.30;;;2.80;;
13202;SDS011;6666;51.626;7.530;2023-08-06T09:07:38;2.50;;;1.83;;
13202;SDS011;6666;51.626;7.530;2023-08-06T09:10:12;4.40;;;2.00;;
13202;SDS011;6666;51.626;7.530;2023-08-06T09:12:44;1.98;;;1.75;;
13202;SDS011;6666;51.626;7.530;2023-08-06T09:15:14;3.67;;;1.80;;
13202;SDS011;6666;51.626;7.530;2023-08-06T09:17:42;3.63;;;1.90;;
13202;SDS011;6666;51.626;7.530;2023-08-06T09:20:11;6.20;;;1.80;;
13202;SDS011;6666;51.626;7.530;2023-08-06T09:22:40;4.50;;;2.25;;
13202;SDS011;6666;51.626;7.530;2023-08-06T09:25:12;2.60;;;2.00;;
13202;SDS011;6666;51.626;7.530;2023-08-06T09:27:48;3.00;;;1.83;;
13202;SDS011;6666;51.626;7.530;2023-08-06T09:30:28;4.15;;;1.75;;
13202;SDS011;6666;51.626;7.530;2023-08-06T09:32:57;3.00;;;1.80;;
13202;SDS011;6666;51.626;7.530;2023-08-06T09:35:28;6.57;;;2.00;;
13202;SDS011;6666;51.626;7.530;2023-08-06T09:38:01;2.20;;;1.88;;
13202;SDS011;6666;51.626;7.530;2023-08-06T09:40:36;3.13;;;1.80;;
13202;SDS011;6666;51.626;7.530;2023-08-06T09:43:05;3.00;;;1.70;;
13202;SDS011;6666;51.626;7.530;2023-08-06T09:45:34;1.95;;;1.75;;
13202;SDS011;6666;51.626;7.530;2023-08-06T09:48:03;2.22;;;1.70;;
13202;SDS011;6666;51.626;7.530;2023-08-06T09:50:33;4.28;;;1.80;;
13202;SDS011;6666;51.626;7.530;2023-08-06T09:53:03;4.10;;;1.60;;
13202;SDS011;6666;51.626;7.530;2023-08-06T09:55:32;3.70;;;2.05;;
13202;SDS011;6666;51.626;7.530;2023-08-06T09:58:02;2.20;;;1.40;;
13202;SDS011;6666;51.626;7.530;2023-08-06T10:00:31;1.90;;;0.90;;
13202;SDS011;6666;51.626;7.530;2023-08-06T10:03:05;2.73;;;1.30;;
13202;SDS011;6666;51.626;7.530;2023-08-06T10:05:35;1.80;;;1.10;;
13202;SDS011;6666;51.626;7.530;2023-08-06T10:08:04;2.60;;;1.63;;
13202;SDS011;6666;51.626;7.530;2023-08-06T10:10:34;3.53;;;1.75;;
13202;SDS011;6666;51.626;7.530;2023-08-06T10:13:04;2.70;;;1.90;;
13202;SDS011;6666;51.626;7.530;2023-08-06T10:15:34;3.22;;;1.65;;
13202;SDS011;6666;51.626;7.530;2023-08-06T10:18:04;1.77;;;1.48;;
13202;SDS011;6666;51.626;7.530;2023-08-06T10:20:34;3.20;;;1.50;;
13202;SDS011;6666;51.626;7.530;2023-08-06T10:23:02;2.43;;;1.30;;
13202;SDS011;6666;51.626;7.530;2023-08-06T10:25:32;4.22;;;2.03;;
13202;SDS011;6666;51.626;7.530;2023-08-06T10:28:07;2.72;;;1.45;;
13202;SDS011;6666;51.626;7.530;2023-08-06T10:30:43;4.30;;;1.50;;
13202;SDS011;6666;51.626;7.530;2023-08-06T10:33:12;2.53;;;1.23;;
13202;SDS011;6666;51.626;7.530;2023-08-06T10:35:43;1.95;;;1.20;;
13202;SDS011;6666;51.626;7.530;2023-08-06T10:38:16;2.80;;;1.45;;
13202;SDS011;6666;51.626;7.530;2023-08-06T10:40:48;3.03;;;2.35;;
13202;SDS011;6666;51.626;7.530;2023-08-06T10:43:28;2.97;;;1.38;;
13202;SDS011;6666;51.626;7.530;2023-08-06T10:45:58;3.60;;;1.30;;
13202;SDS011;6666;51.626;7.530;2023-08-06T10:48:28;2.75;;;1.33;;
13202;SDS011;6666;51.626;7.530;2023-08-06T10:50:59;3.50;;;1.70;;
13202;SDS011;6666;51.626;7.530;2023-08-06T10:53:28;2.38;;;1.50;;
13202;SDS011;6666;51.626;7.530;2023-08-06T10:56:00;2.00;;;1.55;;
13202;SDS011;6666;51.626;7.530;2023-08-06T10:58:32;2.15;;;1.42;;
13202;SDS011;6666;51.626;7.530;2023-08-06T11:01:01;2.60;;;1.80;;
13202;SDS011;6666;51.626;7.530;2023-08-06T11:03:31;4.18;;;1.63;;
13202;SDS011;6666;51.626;7.530;2023-08-06T11:06:00;2.15;;;1.88;;
13202;SDS011;6666;51.626;7.530;2023-08-06T11:08:32;2.53;;;1.87;;
13202;SDS011;6666;51.626;7.530;2023-08-06T11:11:08;1.70;;;1.10;;
13202;SDS011;6666;51.626;7.530;2023-08-06T11:13:40;1.60;;;1.30;;
13202;SDS011;6666;51.626;7.530;2023-08-06T11:16:09;2.53;;;1.13;;
13202;SDS011;6666;51.626;7.530;2023-08-06T11:18:37;2.88;;;1.40;;
13202;SDS011;6666;51.626;7.530;2023-08-06T11:21:07;3.00;;;1.40;;
13202;SDS011;6666;51.626;7.530;2023-08-06T11:23:35;2.40;;;1.55;;
13202;SDS011;6666;51.626;7.530;2023-08-06T11:26:03;2.58;;;1.35;;
13202;SDS011;6666;51.626;7.530;2023-08-06T11:28:31;1.90;;;1.30;;
13202;SDS011;6666;51.626;7.530;2023-08-06T11:31:01;3.33;;;1.90;;
13202;SDS011;6666;51.626;7.530;2023-08-06T11:33:30;2.70;;;1.45;;
13202;SDS011;6666;51.626;7.530;2023-08-06T11:35:58;3.33;;;1.33;;
13202;SDS011;6666;51.626;7.530;2023-08-06T11:38:28;2.10;;;1.50;;
13202;SDS011;6666;51.626;7.530;2023-08-06T11:40:57;2.00;;;1.30;;
13202;SDS011;6666;51.626;7.530;2023-08-06T11:43:25;1.60;;;1.40;;
13202;SDS011;6666;51.626;7.530;2023-08-06T11:45:54;5.20;;;2.00;;
13202;SDS011;6666;51.626;7.530;2023-08-06T11:48:25;1.90;;;1.40;;
13202;SDS011;6666;51.626;7.530;2023-08-06T11:50:54;5.67;;;3.00;;
13202;SDS011;6666;51.626;7.530;2023-08-06T11:53:26;3.40;;;2.35;;
13202;SDS011;6666;51.626;7.530;2023-08-06T11:55:55;2.50;;;2.00;;
13202;SDS011;6666;51.626;7.530;2023-08-06T11:58:24;8.30;;;5.93;;
13202;SDS011;6666;51.626;7.530;2023-08-06T12:00:52;7.15;;;2.38;;
13202;SDS011;6666;51.626;7.530;2023-08-06T12:03:22;6.75;;;4.20;;
13202;SDS011;6666;51.626;7.530;2023-08-06T12:05:55;7.03;;;4.22;;
13202;SDS011;6666;51.626;7.530;2023-08-06T12:08:26;6.57;;;4.18;;
13202;SDS011;6666;51.626;7.530;2023-08-06T12:10:54;4.55;;;3.20;;
13202;SDS011;6666;51.626;7.530;2023-08-06T12:13:22;3.70;;;1.95;;
13202;SDS011;6666;51.626;7.530;2023-08-06T12:15:51;3.70;;;2.80;;
13202;SDS011;6666;51.626;7.530;2023-08-06T12:18:23;3.95;;;1.92;;
13202;SDS011;6666;51.626;7.530;2023-08-06T12:20:51;3.50;;;2.10;;
13202;SDS011;6666;51.626;7.530;2023-08-06T12:23:21;5.15;;;2.50;;
13202;SDS011;6666;51.626;7.530;2023-08-06T12:25:49;4.00;;;2.60;;
13202;SDS011;6666;51.626;7.530;2023-08-06T12:28:18;2.50;;;1.90;;
13202;SDS011;6666;51.626;7.530;2023-08-06T12:30:49;3.35;;;2.08;;
13202;SDS011;6666;51.626;7.530;2023-08-06T12:33:21;1.90;;;1.65;;
13202;SDS011;6666;51.626;7.530;2023-08-06T12:35:49;3.00;;;2.70;;
13202;SDS011;6666;51.626;7.530;2023-08-06T12:38:19;3.70;;;2.80;;
13202;SDS011;6666;51.626;7.530;2023-08-06T12:40:48;4.03;;;2.50;;
13202;SDS011;6666;51.626;7.530;2023-08-06T12:43:17;4.85;;;3.05;;
13202;SDS011;6666;51.626;7.530;2023-08-06T12:45:45;6.88;;;3.28;;
13202;SDS011;6666;51.626;7.530;2023-08-06T12:48:14;5.50;;;3.30;;
13202;SDS011;6666;51.626;7.530;2023-08-06T12:50:43;3.70;;;3.10;;
13202;SDS011;6666;51.626;7.530;2023-08-06T12:53:11;4.70;;;2.50;;
13202;SDS011;6666;51.626;7.530;2023-08-06T12:55:39;4.60;;;3.37;;
13202;SDS011;6666;51.626;7.530;2023-08-06T12:58:09;6.75;;;4.50;;
13202;SDS011;6666;51.626;7.530;2023-08-06T13:00:37;5.22;;;4.72;;
13202;SDS011;6666;51.626;7.530;2023-08-06T13:03:05;5.50;;;4.40;;
13202;SDS011;6666;51.626;7.530;2023-08-06T13:05:33;5.03;;;4.53;;
13202;SDS011;6666;51.626;7.530;2023-08-06T13:08:02;5.78;;;4.60;;
13202;SDS011;6666;51.626;7.530;2023-08-06T13:10:31;4.00;;;3.60;;
13202;SDS011;6666;51.626;7.530;2023-08-06T13:12:59;4.60;;;4.10;;
13202;SDS011;6666;51.626;7.530;2023-08-06T13:15:28;6.70;;;3.60;;
13202;SDS011;6666;51.626;7.530;2023-08-06T13:17:56;4.22;;;3.50;;
13202;SDS011;6666;51.626;7.530;2023-08-06T13:20:24;4.10;;;3.05;;
13202;SDS011;6666;51.626;7.530;2023-08-06T13:22:54;4.30;;;3.08;;
13202;SDS011;6666;51.626;7.530;2023-08-06T13:25:22;3.27;;;2.53;;
13202;SDS011;6666;51.626;7.530;2023-08-06T13:27:50;5.75;;;3.20;;
13202;SDS011;6666;51.626;7.530;2023-08-06T13:30:18;4.35;;;2.75;;
13202;SDS011;6666;51.626;7.530;2023-08-06T13:32:48;2.40;;;2.20;;
13202;SDS011;6666;51.626;7.530;2023-08-06T13:35:16;3.38;;;2.60;;
13202;SDS011;6666;51.626;7.530;2023-08-06T13:37:44;4.20;;;2.80;;
13202;SDS011;6666;51.626;7.530;2023-08-06T13:40:14;2.58;;;2.38;;
13202;SDS011;6666;51.626;7.530;2023-08-06T13:42:43;2.50;;;2.30;;
13202;SDS011;6666;51.626;7.530;2023-08-06T13:45:11;2.38;;;1.90;;
13202;SDS011;6666;51.626;7.530;2023-08-06T13:47:39;2.70;;;1.60;;
13202;SDS011;6666;51.626;7.530;2023-08-06T13:50:09;4.43;;;1.63;;
13202;SDS011;6666;51.626;7.530;2023-08-06T13:52:37;1.67;;;1.40;;
13202;SDS011;6666;51.626;7.530;2023-08-06T13:55:05;5.93;;;0.98;;
13202;SDS011;6666;51.626;7.530;2023-08-06T13:57:34;2.20;;;0.82;;
13202;SDS011;6666;51.626;7.530;2023-08-06T14:00:03;1.10;;;1.00;;
13202;SDS011;6666;51.626;7.530;2023-08-06T14:02:37;1.60;;;1.10;;
13202;SDS011;6666;51.626;7.530;2023-08-06T14:05:06;1.13;;;0.90;;
13202;SDS011;6666;51.626;7.530;2023-08-06T14:07:36;1.10;;;0.90;;
13202;SDS011;6666;51.626;7.530;2023-08-06T14:10:05;1.30;;;1.02;;
13202;SDS011;6666;51.626;7.530;2023-08-06T14:12:35;1.77;;;1.00;;
13202;SDS011;6666;51.626;7.530;2023-08-06T14:15:03;2.80;;;1.20;;
13202;SDS011;6666;51.626;7.530;2023-08-06T14:17:32;3.65;;;1.50;;
13202;SDS011;6666;51.626;7.530;2023-08-06T14:20:00;3.17;;;1.30;;
13202;SDS011;6666;51.626;7.530;2023-08-06T14:22:32;2.10;;;1.30;;
13202;SDS011;6666;51.626;7.530;2023-08-06T14:25:00;1.77;;;1.40;;
13202;SDS011;6666;51.626;7.530;2023-08-06T14:27:28;3.65;;;1.92;;
13202;SDS011;6666;51.626;7.530;2023-08-06T14:29:56;3.45;;;2.40;;
13202;SDS011;6666;51.626;7.530;2023-08-06T14:32:24;4.25;;;2.63;;
13202;SDS011;6666;51.626;7.530;2023-08-06T14:34:52;4.03;;;1.88;;
13202;SDS011;6666;51.626;7.530;2023-08-06T14:37:20;4.18;;;2.25;;
13202;SDS011;6666;51.626;7.530;2023-08-06T14:39:50;5.47;;;1.80;;
13202;SDS011;6666;51.626;7.530;2023-08-06T14:42:18;5.40;;;2.10;;
13202;SDS011;6666;51.626;7.530;2023-08-06T14:44:46;4.90;;;1.97;;
13202;SDS011;6666;51.626;7.530;2023-08-06T14:47:15;3.35;;;2.20;;
13202;SDS011;6666;51.626;7.530;2023-08-06T14:49:43;3.70;;;2.40;;
13202;SDS011;6666;51.626;7.530;2023-08-06T14:52:12;2.80;;;2.37;;
13202;SDS011;6666;51.626;7.530;2023-08-06T14:54:40;4.35;;;2.70;;
13202;SDS011;6666;51.626;7.530;2023-08-06T14:57:10;6.30;;;3.03;;
13202;SDS011;6666;51.626;7.530;2023-08-06T14:59:39;4.75;;;2.10;;
13202;SDS011;6666;51.626;7.530;2023-08-06T15:02:07;5.27;;;2.30;;
13202;SDS011;6666;51.626;7.530;2023-08-06T15:04:35;4.93;;;2.50;;
13202;SDS011;6666;51.626;7.530;2023-08-06T15:07:03;4.53;;;2.50;;
13202;SDS011;6666;51.626;7.530;2023-08-06T15:09:32;4.73;;;2.47;;
13202;SDS011;6666;51.626;7.530;2023-08-06T15:12:21;2.65;;;2.00;;